Time;durP1;ratioP1;P1;durP2;ratioP2;P2;SDS_P1;SDS_P2;PMS_P1;PMS_P2;Temp;Humidity;BMP_temperature;BMP_pressure;BME280_temperature;BME280_humidity;BME280_pressure;Samples;Min_cycle;Max_cycle;Signal;HPM_P1;HPM_P2
2023/09/27 00:01:58;;;;;;;;;;;;;;;5.48;100.00;100093.81;5034256;28;19921;-82
2023/09/27 00:04:23;;;;;;;;;;;;;;;5.49;100.00;100100.81;5034236;28;19924;-83
2023/09/27 00:06:48;;;;;;;;;;;;;;;5.48;100.00;100096.44;5034233;28;19921;-83
2023/09/27 00:09:14;;;;;;;;;;;;;;;5.51;100.00;100092.91;5033116;28;20364;-82
2023/09/27 00:11:40;;;;;;;;;;;;;;;5.46;100.00;100095.59;5034216;28;20404;-82
2023/09/27 00:14:05;;;;;;;;;;;;;;;5.51;100.00;100100.78;5033965;28;20731;-81
2023/09/27 00:16:30;;;;;;;;;;;;;;;5.56;100.00;100096.31;5034054;28;20415;-81
2023/09/27 00:18:55;;;;;;;;;;;;;;;5.61;100.00;100105.81;5032401;28;20373;-83
2023/09/27 00:21:21;;;;;;;;;;;;;;;5.56;100.00;100118.19;5034093;28;20277;-82
2023/09/27 00:23:46;;;;;;;;;;;;;;;5.50;100.00;100123.53;5032780;28;19921;-83
2023/09/27 00:26:11;;;;;;;;;;;;;;;5.48;100.00;100120.09;5033863;28;19952;-83
2023/09/27 05:13:36;;;;;;;;;;;;;;;7.36;100.00;100115.44;5221095;23;19932;-81
2023/09/27 05:16:01;;;;;;;;;;;;;;;7.46;100.00;100117.78;5022721;28;19925;-81
2023/09/27 05:18:26;;;;;;;;;;;;;;;7.53;100.00;100113.25;5023305;28;19924;-82
2023/09/27 05:20:52;;;;;;;;;;;;;;;7.60;100.00;100113.94;5021851;28;20288;-82
2023/09/27 05:23:17;;;;;;;;;;;;;;;7.66;100.00;100120.81;5021686;28;19925;-81
2023/09/27 05:25:43;;;;;;;;;;;;;;;7.73;100.00;100120.63;5022722;28;19927;-81
2023/09/27 05:28:09;;;;;;;;;;;;;;;7.76;100.00;100124.97;5021569;28;19921;-82
2023/09/27 05:30:34;;;;;;;;;;;;;;;7.82;100.00;100119.53;5021834;28;19968;-80
2023/09/27 05:32:59;;;;;;;;;;;;;;;7.86;100.00;100122.94;5021550;28;19960;-82
2023/09/27 05:35:24;;;;;;;;;;;;;;;7.88;100.00;100122.03;5022277;28;20276;-82
2023/09/27 05:37:50;;;;;;;;;;;;;;;7.92;100.00;100114.88;5022905;28;20006;-81
2023/09/27 05:40:15;;;;;;;;;;;;;;;7.97;100.00;100108.56;5021481;28;19917;-82
2023/09/27 05:42:41;;;;;;;;;;;;;;;8.00;100.00;100112.91;5021115;28;19917;-83
2023/09/27 05:45:11;;;;;;;;;;;;;;;8.03;100.00;100109.31;5022407;28;20020;-83
2023/09/27 05:47:37;;;;;;;;;;;;;;;8.05;100.00;100111.00;5020920;28;19968;-82
2023/09/27 05:50:04;;;;;;;;;;;;;;;8.13;100.00;100114.28;5022645;28;19957;-82
2023/09/27 05:52:29;;;;;;;;;;;;;;;8.17;100.00;100118.56;5021028;28;19924;-81
2023/09/27 05:54:55;;;;;;;;;;;;;;;8.18;100.00;100132.63;5022316;28;19921;-81
2023/09/27 05:57:21;;;;;;;;;;;;;;;8.23;100.00;100125.44;5021076;28;19917;-80
2023/09/27 05:59:47;;;;;;;;;;;;;;;8.24;100.00;100121.91;5022551;28;20368;-80
2023/09/27 06:02:16;;;;;;;;;;;;;;;8.27;100.00;100123.59;5022186;28;19921;-82
2023/09/27 06:04:45;;;;;;;;;;;;;;;8.31;100.00;100127.88;5022550;28;20426;-82
2023/09/27 06:07:13;;;;;;;;;;;;;;;8.31;100.00;100135.78;5022439;28;20020;-80
2023/09/27 06:09:39;;;;;;;;;;;;;;;8.33;100.00;100126.09;5022075;28;19921;-80
2023/09/27 06:12:04;;;;;;;;;;;;;;;8.36;100.00;100133.91;5020682;28;20331;-80
2023/09/27 06:14:30;;;;;;;;;;;;;;;8.40;100.00;100130.25;5020719;28;19925;-88
2023/09/27 06:16:55;;;;;;;;;;;;;;;8.43;100.00;100134.59;5021226;28;19967;-80
2023/09/27 06:19:21;;;;;;;;;;;;;;;8.44;100.00;100128.44;5020751;28;19925;-81
2023/09/27 06:21:46;;;;;;;;;;;;;;;8.47;100.00;100128.34;5021933;28;19921;-81
2023/09/27 06:24:12;;;;;;;;;;;;;;;8.46;100.00;100135.41;5022153;28;19917;-80
2023/09/27 06:26:38;;;;;;;;;;;;;;;8.49;100.00;100139.75;5019721;28;19929;-82
2023/09/27 06:29:03;;;;;;;;;;;;;;;8.53;100.00;100147.50;5022193;28;20008;-80
2023/09/27 06:31:29;;;;;;;;;;;;;;;8.53;100.00;100150.16;5021869;28;19918;-81
2023/09/27 06:33:54;;;;;;;;;;;;;;;8.53;100.00;100149.28;5022248;28;19940;-80
2023/09/27 06:36:21;;;;;;;;;;;;;;;8.57;100.00;100150.06;5021935;28;20639;-81
2023/09/27 06:38:46;;;;;;;;;;;;;;;8.57;100.00;100156.25;5027959;28;19924;-80
2023/09/27 06:41:11;;;;;;;;;;;;;;;8.60;100.00;100142.94;5020480;28;19921;-82
2023/09/27 06:43:37;;;;;;;;;;;;;;;8.62;100.00;100142.91;5019811;28;20047;-81
2023/09/27 06:46:07;;;;;;;;;;;;;;;8.61;100.00;100139.38;5020399;28;19917;-81
2023/09/27 06:48:32;;;;;;;;;;;;;;;8.63;100.00;100131.41;5024258;28;19924;-82
2023/09/27 06:50:58;;;;;;;;;;;;;;;8.64;100.00;100135.78;5026057;28;20331;-82
2023/09/27 06:53:23;;;;;;;;;;;;;;;8.57;100.00;100139.50;5024356;28;19918;-82
2023/09/27 06:55:49;;;;;;;;;;;;;;;7.58;100.00;100143.00;5024137;28;19925;-81
2023/09/27 08:01:41;;;;;;;;;;;;;;;6.11;100.00;100110.22;5191181;23;19926;-89
2023/09/27 08:04:08;;;;;;;;;;;;;;;5.92;100.00;100112.28;4976720;28;19922;-86
2023/09/27 08:06:34;;;;;;;;;;;;;;;6.01;100.00;100104.28;4992867;28;19930;-86
2023/09/27 08:08:59;;;;;;;;;;;;;;;5.98;100.00;100104.31;4976062;28;19918;-85
2023/09/27 08:11:25;;;;;;;;;;;;;;;5.94;100.00;100113.16;4994984;28;19932;-86
2023/09/27 08:13:50;;;;;;;;;;;;;;;6.05;100.00;100111.22;4994825;28;19944;-86
2023/09/27 08:16:16;;;;;;;;;;;;;;;5.97;100.00;100106.09;4974211;28;19922;-86
2023/09/27 08:18:42;;;;;;;;;;;;;;;5.91;100.00;100106.19;4994683;28;19921;-86
2023/09/27 08:21:15;;;;;;;;;;;;;;;5.86;100.00;100107.19;4974761;28;20404;-88
2023/09/27 08:23:41;;;;;;;;;;;;;;;5.94;100.00;100108.75;4976525;28;19934;-86
2023/09/27 08:26:09;;;;;;;;;;;;;;;5.90;100.00;100112.31;4990154;28;20368;-89
2023/09/27 08:28:34;;;;;;;;;;;;;;;5.80;100.00;100105.50;4994322;28;19922;-86
2023/09/27 08:31:00;;;;;;;;;;;;;;;5.82;100.00;100112.50;4993266;28;19984;-87
2023/09/27 08:33:25;;;;;;;;;;;;;;;5.82;100.00;100114.22;4964198;28;19964;-87
2023/09/27 08:35:52;;;;;;;;;;;;;;;5.92;100.00;100118.44;4991608;28;19921;-87
2023/09/27 08:38:17;;;;;;;;;;;;;;;5.86;100.00;100110.66;4976473;28;19922;-87
2023/09/27 08:40:42;;;;;;;;;;;;;;;5.88;100.00;100114.13;4993482;28;19929;-87
2023/09/27 08:43:08;;;;;;;;;;;;;;;5.87;100.00;100120.31;4994339;28;20004;-86
2023/09/27 08:45:38;;;;;;;;;;;;;;;5.96;100.00;100122.78;4974412;28;19922;-91
2023/09/27 08:48:04;;;;;;;;;;;;;;;5.93;100.00;100121.94;4993077;28;20289;-88
2023/09/27 08:50:30;;;;;;;;;;;;;;;5.73;100.00;100124.94;4976047;28;19925;-88
2023/09/27 08:52:55;;;;;;;;;;;;;;;5.82;100.00;100125.66;4994057;28;19922;-89
2023/09/27 08:55:20;;;;;;;;;;;;;;;5.89;100.00;100123.75;4992511;28;19929;-89
2023/09/27 08:57:51;;;;;;;;;;;;;;;5.79;100.00;100125.69;4993225;28;19948;-88
2023/09/27 09:00:20;;;;;;;;;;;;;;;5.70;100.00;100130.25;4974683;28;19926;-88
2023/09/27 09:02:48;;;;;;;;;;;;;;;5.78;100.00;100128.34;4992341;28;19929;-87
2023/09/27 09:05:15;;;;;;;;;;;;;;;5.88;100.00;100124.66;4990920;28;19922;-88
2023/09/27 09:07:40;;;;;;;;;;;;;;;5.81;100.00;100129.16;4988359;28;19938;-89
2023/09/27 09:10:09;;;;;;;;;;;;;;;5.66;100.00;100134.66;4991695;28;19926;-88
2023/09/27 09:12:35;;;;;;;;;;;;;;;5.70;100.00;100125.00;4973039;28;19987;-88
2023/09/27 09:15:04;;;;;;;;;;;;;;;5.89;100.00;100131.66;4987513;28;19934;-88
2023/09/27 09:17:34;;;;;;;;;;;;;;;5.80;100.00;100121.28;4967816;28;19926;-88
2023/09/27 09:20:27;;;;;;;;;;;;;;;5.74;100.00;100126.66;4990932;28;19928;-88
2023/09/27 09:22:54;;;;;;;;;;;;;;;5.78;100.00;100117.81;4989384;28;19929;-89
2023/09/27 09:25:40;;;;;;;;;;;;;;;5.83;100.00;100111.56;4992421;28;19932;-90
2023/09/27 09:28:09;;;;;;;;;;;;;;;5.77;100.00;100105.56;4990066;28;20293;-87
2023/09/27 09:30:38;;;;;;;;;;;;;;;5.80;100.00;100103.75;4990845;28;20005;-91
2023/09/27 09:33:15;;;;;;;;;;;;;;;5.89;100.00;100096.56;4970449;28;19929;-87
2023/09/27 09:35:40;;;;;;;;;;;;;;;5.99;100.00;100096.41;4988104;28;19922;-87
2023/09/27 09:38:06;;;;;;;;;;;;;;;5.97;100.00;100090.31;4993161;28;19979;-88
2023/09/27 09:40:31;;;;;;;;;;;;;;;5.92;100.00;100083.38;4993324;28;20311;-88
2023/09/27 09:42:59;;;;;;;;;;;;;;;5.85;100.00;100076.50;4992185;28;20088;-88
2023/09/27 09:45:24;;;;;;;;;;;;;;;5.82;100.00;100075.69;4974739;28;20266;-88
2023/09/27 09:47:51;;;;;;;;;;;;;;;5.76;100.00;100065.25;4975796;28;19922;-87
2023/09/27 09:50:17;;;;;;;;;;;;;;;5.74;100.00;100064.41;4974744;28;19929;-88
2023/09/27 09:52:50;;;;;;;;;;;;;;;5.77;100.00;100063.50;4974746;28;19926;-86
2023/09/27 09:55:19;;;;;;;;;;;;;;;5.73;100.00;100061.84;4992406;28;19973;-88
2023/09/27 09:57:45;;;;;;;;;;;;;;;5.81;100.00;100062.56;4993315;28;19922;-88
2023/09/27 10:00:18;;;;;;;;;;;;;;;5.73;100.00;100059.22;4990570;28;19926;-89
2023/09/27 10:02:53;;;;;;;;;;;;;;;5.80;100.00;100053.78;4974854;28;19929;-89
2023/09/27 10:05:19;;;;;;;;;;;;;;;5.72;100.00;100046.94;4992868;28;19983;-89
2023/09/27 10:07:45;;;;;;;;;;;;;;;5.73;100.00;100046.06;4975692;28;19945;-91
2023/09/27 10:10:12;;;;;;;;;;;;;;;5.82;100.00;100048.50;4972572;28;20389;-89
2023/09/27 10:12:37;;;;;;;;;;;;;;;5.92;100.00;100036.91;4974689;28;19926;-86
2023/09/27 10:15:04;;;;;;;;;;;;;;;5.82;100.00;100032.72;4989528;28;19991;-87
2023/09/27 10:17:33;;;;;;;;;;;;;;;5.78;100.00;100033.69;4992222;28;20024;-87
2023/09/27 10:20:14;;;;;;;;;;;;;;;5.86;100.00;100021.25;4992811;28;20008;-93
2023/09/27 10:23:01;;;;;;;;;;;;;;;6.81;100.00;100020.09;4974236;28;19937;-87
2023/09/27 10:25:27;;;;;;;;;;;;;;;7.33;100.00;100007.41;4991639;28;20008;-85
2023/09/27 10:27:58;;;;;;;;;;;;;;;14.39;100.00;100002.06;4991896;28;20017;-84
2023/09/27 10:30:23;;;;;;;;;;;;;;;17.15;100.00;99961.28;4971769;28;20005;-87
2023/09/27 10:32:48;;;;;;;;;;;;;;;18.48;100.00;99953.75;4991441;28;20012;-84
2023/09/27 10:35:18;;;;;;;;;;;;;;;20.35;100.00;99934.09;4991957;28;19922;-82
2023/09/27 10:37:57;;;;;;;;;;;;;;;12.25;100.00;99956.09;4975184;28;19918;-89
2023/09/27 10:40:22;;;;;;;;;;;;;;;9.84;100.00;99977.63;4992377;28;19922;-84
2023/09/27 10:42:48;;;;;;;;;;;;;;;9.08;100.00;99985.56;4992615;28;20724;-84
2023/09/27 10:45:13;;;;;;;;;;;;;;;8.80;100.00;99986.44;4991445;28;19942;-84
2023/09/27 10:47:39;;;;;;;;;;;;;;;8.49;100.00;99978.66;4974842;28;20373;-84
2023/09/27 10:50:05;;;;;;;;;;;;;;;8.36;100.00;99975.50;4989842;28;19953;-84
2023/09/27 10:52:30;;;;;;;;;;;;;;;8.25;100.00;99970.53;4990176;28;19926;-84
2023/09/27 10:55:07;;;;;;;;;;;;;;;8.03;100.00;99965.03;4992394;28;19981;-84
2023/09/27 10:57:33;;;;;;;;;;;;;;;7.92;100.00;99961.84;4992285;28;19956;-84
2023/09/27 10:59:58;;;;;;;;;;;;;;;7.89;100.00;99951.38;4991042;28;19961;-85
2023/09/27 11:02:27;;;;;;;;;;;;;;;7.81;100.00;99952.44;4991476;28;20387;-84
2023/09/27 11:04:55;;;;;;;;;;;;;;;7.81;100.00;99949.81;4991788;28;19992;-84
2023/09/27 11:07:20;;;;;;;;;;;;;;;7.75;100.00;99944.72;4991758;28;19973;-84
2023/09/27 11:09:48;;;;;;;;;;;;;;;7.73;100.00;99946.53;4991521;28;20385;-84
2023/09/27 11:12:20;;;;;;;;;;;;;;;7.62;100.00;99945.97;4973533;28;19929;-84
2023/09/27 11:14:45;;;;;;;;;;;;;;;7.64;100.00;99930.97;4990923;28;19918;-87
2023/09/27 11:17:27;;;;;;;;;;;;;;;7.55;100.00;99940.03;4992552;28;20419;-88
2023/09/27 11:19:52;;;;;;;;;;;;;;;7.52;100.00;99936.63;4974767;28;20380;-84
2023/09/27 11:22:25;;;;;;;;;;;;;;;7.56;100.00;99932.97;4991346;28;19929;-85
2023/09/27 11:24:51;;;;;;;;;;;;;;;7.50;100.00;99923.47;4991805;28;19929;-82
2023/09/27 11:27:18;;;;;;;;;;;;;;;7.53;100.00;99917.22;4992022;28;19917;-81
2023/09/27 11:29:49;;;;;;;;;;;;;;;7.60;100.00;99917.00;4991360;28;20047;-86
2023/09/27 11:32:17;;;;;;;;;;;;;;;7.49;100.00;99910.31;4973933;28;19957;-90
2023/09/27 11:34:42;;;;;;;;;;;;;;;7.51;100.00;99913.78;4978237;28;19985;-87
2023/09/27 11:37:16;;;;;;;;;;;;;;;7.46;100.00;99908.63;4978149;28;19918;-87
2023/09/27 11:39:50;;;;;;;;;;;;;;;7.50;100.00;99906.75;4995175;28;19917;-84
2023/09/27 11:42:19;;;;;;;;;;;;;;;7.45;100.00;99894.59;4994538;28;19925;-87
2023/09/27 11:44:45;;;;;;;;;;;;;;;7.40;100.00;99899.13;4994475;28;19967;-86
2023/09/27 11:47:10;;;;;;;;;;;;;;;7.41;100.00;99889.44;4995523;28;20394;-86
2023/09/27 11:49:48;;;;;;;;;;;;;;;7.51;100.00;99885.63;4995436;28;19914;-89
2023/09/27 11:52:14;;;;;;;;;;;;;;;7.36;100.00;99876.38;4977210;28;19961;-85
2023/09/27 11:54:46;;;;;;;;;;;;;;;7.47;100.00;99878.72;4977981;28;20385;-87
2023/09/27 11:57:15;;;;;;;;;;;;;;;7.40;100.00;99869.25;4994698;28;19928;-87
2023/09/27 11:59:43;;;;;;;;;;;;;;;7.42;100.00;99870.09;4976254;28;20377;-87
2023/09/27 12:02:18;;;;;;;;;;;;;;;7.40;100.00;99878.03;4977464;28;20265;-87
2023/09/27 12:04:44;;;;;;;;;;;;;;;7.44;100.00;99874.41;4977302;28;19929;-85
2023/09/27 12:07:12;;;;;;;;;;;;;;;7.29;100.00;99861.63;4995043;28;19914;-86
2023/09/27 12:09:38;;;;;;;;;;;;;;;7.38;100.00;99858.75;4977658;28;20016;-87
2023/09/27 12:12:06;;;;;;;;;;;;;;;7.27;100.00;99856.44;4995123;28;20572;-86
2023/09/27 12:14:55;;;;;;;;;;;;;;;7.45;100.00;99852.41;4991718;28;20023;-89
2023/09/27 12:17:21;;;;;;;;;;;;;;;7.43;100.00;99850.72;4977238;28;19975;-87
2023/09/27 12:19:46;;;;;;;;;;;;;;;7.43;100.00;99848.94;4994774;28;20008;-86
2023/09/27 12:22:12;;;;;;;;;;;;;;;7.47;100.00;99847.09;4992145;28;19926;-86
2023/09/27 12:24:37;;;;;;;;;;;;;;;7.41;100.00;99849.91;4994179;28;20365;-88
2023/09/27 12:27:04;;;;;;;;;;;;;;;7.48;100.00;99848.81;4994663;28;20393;-86
2023/09/27 12:29:29;;;;;;;;;;;;;;;7.39;100.00;99842.03;4976686;28;20329;-85
2023/09/27 12:31:54;;;;;;;;;;;;;;;7.37;100.00;99835.06;4992677;28;19922;-86
2023/09/27 12:34:23;;;;;;;;;;;;;;;7.41;100.00;99834.94;4993416;28;19922;-86
2023/09/27 12:36:48;;;;;;;;;;;;;;;7.40;100.00;99838.50;4977272;28;19922;-87
2023/09/27 12:39:16;;;;;;;;;;;;;;;7.43;100.00;99832.25;4994441;28;19928;-86
2023/09/27 12:41:44;;;;;;;;;;;;;;;7.42;100.00;99830.56;4976899;28;20024;-86
2023/09/27 12:44:09;;;;;;;;;;;;;;;7.44;100.00;99824.31;4992032;28;20000;-81
2023/09/27 12:46:35;;;;;;;;;;;;;;;7.51;100.00;99829.41;4991485;28;20001;-86
2023/09/27 12:49:03;;;;;;;;;;;;;;;7.51;100.00;99822.34;4994350;28;20365;-88
2023/09/27 12:51:28;;;;;;;;;;;;;;;7.51;100.00;99814.44;4994480;28;19929;-85
2023/09/27 12:53:54;;;;;;;;;;;;;;;7.52;100.00;99810.03;4992865;28;19917;-86
2023/09/27 12:56:21;;;;;;;;;;;;;;;7.54;100.00;99811.72;4975816;28;19949;-86
2023/09/27 12:58:46;;;;;;;;;;;;;;;7.47;100.00;99807.53;4994026;28;19918;-85
2023/09/27 13:01:18;;;;;;;;;;;;;;;7.49;100.00;99796.94;4988757;28;19921;-86
2023/09/27 13:03:44;;;;;;;;;;;;;;;7.52;100.00;99794.22;4976412;28;20396;-84
2023/09/27 13:06:10;;;;;;;;;;;;;;;7.44;100.00;99797.94;4993408;28;19922;-89
2023/09/27 13:08:36;;;;;;;;;;;;;;;7.34;100.00;99788.59;4976842;28;20419;-91
2023/09/27 13:11:01;;;;;;;;;;;;;;;7.37;100.00;99784.97;4992803;28;19922;-85
2023/09/27 13:13:28;;;;;;;;;;;;;;;7.39;100.00;99784.03;4976066;28;19922;-86
2023/09/27 13:15:54;;;;;;;;;;;;;;;7.37;100.00;99779.72;4990833;28;19921;-85
2023/09/27 13:18:19;;;;;;;;;;;;;;;7.36;100.00;99784.13;4989306;28;19933;-90
2023/09/27 13:20:44;;;;;;;;;;;;;;;7.37;100.00;99785.88;4974188;28;19945;-84
2023/09/27 13:23:15;;;;;;;;;;;;;;;7.38;100.00;99781.44;4993456;28;19921;-89
2023/09/27 13:25:49;;;;;;;;;;;;;;;7.33;100.00;99781.59;4975981;28;20325;-86
2023/09/27 13:28:14;;;;;;;;;;;;;;;7.35;100.00;99777.13;4993383;28;19945;-88
2023/09/27 13:30:40;;;;;;;;;;;;;;;7.29;100.00;99772.03;4991403;28;19922;-85
2023/09/27 13:33:05;;;;;;;;;;;;;;;7.34;100.00;99763.97;4993361;28;19918;-85
2023/09/27 13:35:30;;;;;;;;;;;;;;;7.33;100.00;99764.91;4993284;28;19928;-86
2023/09/27 13:37:58;;;;;;;;;;;;;;;7.35;100.00;99756.03;4993524;28;19918;-86
2023/09/27 13:40:24;;;;;;;;;;;;;;;7.34;100.00;99756.97;4992191;28;19917;-86
2023/09/27 13:42:49;;;;;;;;;;;;;;;7.30;100.00;99746.56;4991801;28;20403;-86
2023/09/27 13:45:14;;;;;;;;;;;;;;;7.28;100.00;99746.59;4974505;28;19949;-86
2023/09/27 13:47:40;;;;;;;;;;;;;;;7.32;100.00;99740.31;4974396;28;19930;-86
2023/09/27 13:50:06;;;;;;;;;;;;;;;7.28;100.00;99738.69;4993109;28;19914;-86
2023/09/27 13:52:32;;;;;;;;;;;;;;;7.27;100.00;99732.56;4993311;28;19925;-93
2023/09/27 13:54:58;;;;;;;;;;;;;;;7.31;100.00;99730.69;4975629;28;19945;-87
2023/09/27 13:57:23;;;;;;;;;;;;;;;7.34;100.00;99730.59;4974541;28;19958;-88
2023/09/27 13:59:48;;;;;;;;;;;;;;;7.32;100.00;99724.50;4991866;28;19968;-87
2023/09/27 14:02:14;;;;;;;;;;;;;;;7.28;100.00;99726.38;4992235;28;19975;-85
2023/09/27 14:04:40;;;;;;;;;;;;;;;7.23;100.00;99720.38;4992921;28;19918;-86
2023/09/27 14:07:06;;;;;;;;;;;;;;;7.28;100.00;99715.81;4992218;28;19922;-86
2023/09/27 14:09:31;;;;;;;;;;;;;;;7.33;100.00;99715.69;4991906;28;19922;-86
2023/09/27 14:11:56;;;;;;;;;;;;;;;7.43;100.00;99711.84;4991005;28;20024;-83
2023/09/27 14:14:22;;;;;;;;;;;;;;;7.29;100.00;99708.78;4975335;28;19921;-86
2023/09/27 14:16:48;;;;;;;;;;;;;;;7.31;100.00;99706.09;4974167;28;20404;-85
2023/09/27 14:19:15;;;;;;;;;;;;;;;7.28;100.00;99713.19;4992837;28;19969;-86
2023/09/27 14:21:41;;;;;;;;;;;;;;;7.34;100.00;99709.50;4991589;28;20254;-86
2023/09/27 14:24:07;;;;;;;;;;;;;;;7.40;100.00;99705.81;4992667;28;19929;-87
2023/09/27 14:26:33;;;;;;;;;;;;;;;7.28;100.00;99707.91;4992467;28;19929;-86
2023/09/27 14:28:58;;;;;;;;;;;;;;;7.31;100.00;99703.44;4992938;28;20262;-86
2023/09/27 14:31:27;;;;;;;;;;;;;;;7.22;100.00;99700.19;4972710;28;19964;-85
2023/09/27 14:33:55;;;;;;;;;;;;;;;7.24;100.00;99697.50;4973840;28;19932;-85
2023/09/27 14:36:22;;;;;;;;;;;;;;;7.31;100.00;99693.78;4975150;28;19964;-86
2023/09/27 14:38:47;;;;;;;;;;;;;;;7.25;100.00;99688.72;4974944;28;20285;-86
2023/09/27 14:41:13;;;;;;;;;;;;;;;7.19;100.00;99695.00;4991427;28;19925;-89
2023/09/27 14:43:39;;;;;;;;;;;;;;;7.21;100.00;99694.97;4974922;28;20025;-86
2023/09/27 14:46:11;;;;;;;;;;;;;;;7.22;100.00;99689.66;4973935;28;20025;-86
2023/09/27 14:48:37;;;;;;;;;;;;;;;7.20;100.00;99695.91;4990810;28;19925;-86
2023/09/27 14:51:03;;;;;;;;;;;;;;;7.28;100.00;99691.25;4973365;28;19914;-86
2023/09/27 14:53:28;;;;;;;;;;;;;;;7.24;100.00;99690.50;4992318;28;20285;-86
2023/09/27 14:55:54;;;;;;;;;;;;;;;7.38;100.00;99692.69;4974910;28;19922;-87
2023/09/27 14:58:20;;;;;;;;;;;;;;;7.34;100.00;99693.69;4992333;28;20400;-87
2023/09/27 15:00:45;;;;;;;;;;;;;;;7.29;100.00;99687.69;4972929;28;19922;-87
2023/09/27 15:03:10;;;;;;;;;;;;;;;7.31;100.00;99685.88;4974924;28;19922;-85
2023/09/27 15:05:38;;;;;;;;;;;;;;;7.21;100.00;99695.84;4992358;28;19921;-87
2023/09/27 15:08:03;;;;;;;;;;;;;;;7.26;100.00;99693.06;4975372;28;19941;-85
2023/09/27 15:10:29;;;;;;;;;;;;;;;7.20;100.00;99698.53;4995021;28;19926;-85
2023/09/27 15:12:54;;;;;;;;;;;;;;;7.19;100.00;99712.59;4995822;28;19922;-87
2023/09/27 15:15:19;;;;;;;;;;;;;;;7.23;100.00;99711.63;4977134;28;19917;-86
2023/09/27 15:17:44;;;;;;;;;;;;;;;7.24;100.00;99711.56;4995931;28;19917;-85
2023/09/27 15:20:11;;;;;;;;;;;;;;;7.20;100.00;99706.44;4978731;28;19976;-86
2023/09/27 15:22:38;;;;;;;;;;;;;;;7.24;100.00;99695.75;4978310;28;19929;-86
2023/09/27 15:25:05;;;;;;;;;;;;;;;7.20;100.00;99701.16;4993766;28;19964;-84
2023/09/27 15:27:30;;;;;;;;;;;;;;;7.18;100.00;99700.31;4995712;28;20012;-85
2023/09/27 15:29:56;;;;;;;;;;;;;;;7.18;100.00;99693.31;4977227;28;20040;-86
2023/09/27 15:32:22;;;;;;;;;;;;;;;7.16;100.00;99700.38;4994420;28;19918;-89
2023/09/27 15:34:47;;;;;;;;;;;;;;;7.24;100.00;99700.16;4994382;28;19925;-88
2023/09/27 15:37:13;;;;;;;;;;;;;;;7.22;100.00;99697.56;4978192;28;20365;-88
2023/09/27 15:39:38;;;;;;;;;;;;;;;7.24;100.00;99700.16;4978011;28;19925;-91
2023/09/27 15:42:03;;;;;;;;;;;;;;;7.22;100.00;99704.59;4995429;28;19925;-90
2023/09/27 15:44:35;;;;;;;;;;;;;;;7.18;100.00;99703.84;4996474;28;20038;-91
2023/09/27 15:47:00;;;;;;;;;;;;;;;7.25;100.00;99701.88;4977223;28;19920;-90
2023/09/27 15:49:25;;;;;;;;;;;;;;;7.21;100.00;99694.97;4995709;28;20352;-90
2023/09/27 15:51:51;;;;;;;;;;;;;;;7.24;100.00;99700.16;4995910;28;19917;-87
2023/09/27 15:54:17;;;;;;;;;;;;;;;7.20;100.00;99698.53;4978070;28;19924;-89
2023/09/27 15:56:42;;;;;;;;;;;;;;;7.30;100.00;99702.59;4977711;28;19972;-92
2023/09/27 15:59:09;;;;;;;;;;;;;;;7.25;100.00;99707.16;4977793;28;19922;-89
2023/09/27 16:01:34;;;;;;;;;;;;;;;7.25;100.00;99709.78;4976228;28;19952;-92
2023/09/27 16:04:00;;;;;;;;;;;;;;;7.23;100.00;99706.34;4994899;28;19976;-90
2023/09/27 16:06:26;;;;;;;;;;;;;;;7.22;100.00;99712.50;4995198;28;19956;-89
2023/09/27 16:08:51;;;;;;;;;;;;;;;7.26;100.00;99708.91;4977253;28;19918;-87
2023/09/27 16:11:24;;;;;;;;;;;;;;;7.22;100.00;99709.88;4994905;28;20008;-88
2023/09/27 16:13:49;;;;;;;;;;;;;;;7.19;100.00;99708.19;4976450;28;20274;-91
2023/09/27 16:16:14;;;;;;;;;;;;;;;7.17;100.00;99706.53;4993600;28;19924;-88
2023/09/27 16:18:39;;;;;;;;;;;;;;;7.25;100.00;99704.53;4976891;28;20285;-89
2023/09/27 16:21:04;;;;;;;;;;;;;;;7.16;100.00;99697.75;4976573;28;19918;-89
2023/09/27 16:23:30;;;;;;;;;;;;;;;7.17;100.00;99696.00;4994821;28;19928;-89
2023/09/27 16:25:55;;;;;;;;;;;;;;;7.17;100.00;99693.34;4976884;28;19918;-91
2023/09/27 16:28:23;;;;;;;;;;;;;;;7.15;100.00;99687.25;4977301;28;19933;-88
2023/09/27 16:30:49;;;;;;;;;;;;;;;7.14;100.00;99682.91;4993589;28;19996;-92
2023/09/27 16:33:14;;;;;;;;;;;;;;;7.15;100.00;99680.22;4993486;28;20012;-89
2023/09/27 16:35:40;;;;;;;;;;;;;;;7.14;100.00;99675.00;4994512;28;20375;-89
2023/09/27 16:38:05;;;;;;;;;;;;;;;7.09;100.00;99681.25;4994590;28;19918;-90
2023/09/27 16:40:31;;;;;;;;;;;;;;;7.12;100.00;99679.47;4992361;28;19929;-88
2023/09/27 16:42:57;;;;;;;;;;;;;;;7.17;100.00;99677.53;4992633;28;19929;-89
2023/09/27 16:45:24;;;;;;;;;;;;;;;7.09;100.00;99680.41;4975454;28;20393;-89
2023/09/27 16:47:49;;;;;;;;;;;;;;;7.11;100.00;99678.56;4994168;28;19918;-88
2023/09/27 16:50:14;;;;;;;;;;;;;;;7.17;100.00;99682.81;4994101;28;19917;-92
2023/09/27 16:52:40;;;;;;;;;;;;;;;7.18;100.00;99681.88;4994361;28;19921;-87
2023/09/27 16:55:11;;;;;;;;;;;;;;;7.17;100.00;99694.22;4993970;28;20313;-95
2023/09/27 16:57:36;;;;;;;;;;;;;;;7.18;100.00;99684.53;4993993;28;19918;-90
2023/09/27 17:00:05;;;;;;;;;;;;;;;7.19;100.00;99681.84;4974354;28;19925;-87
2023/09/27 17:02:31;;;;;;;;;;;;;;;7.16;100.00;99681.06;4976642;28;19926;-90
2023/09/27 17:04:57;;;;;;;;;;;;;;;7.21;100.00;99687.06;4994528;28;19933;-91
2023/09/27 17:07:23;;;;;;;;;;;;;;;7.20;100.00;99688.84;4994558;28;19914;-90
2023/09/27 17:09:48;;;;;;;;;;;;;;;7.23;100.00;99688.75;4994015;28;20328;-90
2023/09/27 17:12:13;;;;;;;;;;;;;;;7.18;100.00;99695.06;4993920;28;19980;-91
2023/09/27 17:14:38;;;;;;;;;;;;;;;7.22;100.00;99694.06;4991361;28;19921;-90
2023/09/27 17:17:04;;;;;;;;;;;;;;;7.25;100.00;99700.09;4992502;28;19925;-89
2023/09/27 17:19:29;;;;;;;;;;;;;;;7.23;100.00;99701.94;4993751;28;19918;-86
2023/09/27 17:21:54;;;;;;;;;;;;;;;7.27;100.00;99705.31;4992326;28;19932;-89
2023/09/27 17:24:20;;;;;;;;;;;;;;;7.20;100.00;99707.28;4974915;28;19930;-90
2023/09/27 17:26:46;;;;;;;;;;;;;;;7.21;100.00;99705.50;4993690;28;20024;-93
2023/09/27 17:29:15;;;;;;;;;;;;;;;7.30;100.00;99694.69;4976046;28;19918;-89
2023/09/27 17:31:40;;;;;;;;;;;;;;;7.28;100.00;99693.88;4971138;28;20376;-88
2023/09/27 17:34:07;;;;;;;;;;;;;;;7.28;100.00;99697.38;4975907;28;19929;-88
2023/09/27 17:36:32;;;;;;;;;;;;;;;7.25;100.00;99686.06;4993470;28;19925;-88
2023/09/27 17:38:58;;;;;;;;;;;;;;;7.26;100.00;99687.81;4991904;28;19918;-88
2023/09/27 17:41:23;;;;;;;;;;;;;;;7.25;100.00;99696.63;4993242;28;19918;-89
2023/09/27 17:43:48;;;;;;;;;;;;;;;7.17;100.00;99693.34;4993605;28;20009;-89
2023/09/27 17:46:23;;;;;;;;;;;;;;;7.16;100.00;99692.47;4992432;28;19925;-86
2023/09/27 17:48:49;;;;;;;;;;;;;;;7.22;100.00;99691.44;4992624;28;19930;-89
2023/09/27 17:51:16;;;;;;;;;;;;;;;7.18;100.00;99685.41;4975827;28;19914;-89
2023/09/27 17:53:42;;;;;;;;;;;;;;;7.21;100.00;99687.06;4993041;28;20004;-89
2023/09/27 17:56:07;;;;;;;;;;;;;;;7.23;100.00;99682.63;4975495;28;20121;-89
2023/09/27 17:58:32;;;;;;;;;;;;;;;7.19;100.00;99692.38;4974459;28;19922;-89
2023/09/27 18:00:58;;;;;;;;;;;;;;;7.27;100.00;99689.50;4991167;28;20060;-89
2023/09/27 18:03:24;;;;;;;;;;;;;;;7.17;100.00;99685.44;4975884;28;19926;-89
2023/09/27 18:05:50;;;;;;;;;;;;;;;7.18;100.00;99685.41;4994150;28;19922;-87
2023/09/27 18:08:15;;;;;;;;;;;;;;;7.19;100.00;99680.97;4992901;28;20435;-89
2023/09/27 18:10:40;;;;;;;;;;;;;;;7.18;100.00;99684.53;4992964;28;20008;-90
2023/09/27 18:13:06;;;;;;;;;;;;;;;7.22;100.00;99683.53;4975362;28;19918;-89
2023/09/27 18:15:32;;;;;;;;;;;;;;;7.24;100.00;99686.97;4973999;28;19929;-90
2023/09/27 18:17:58;;;;;;;;;;;;;;;7.25;100.00;99689.56;4974464;28;19917;-90
2023/09/27 18:20:23;;;;;;;;;;;;;;;7.24;100.00;99700.16;4992933;28;20262;-89
2023/09/27 18:22:49;;;;;;;;;;;;;;;7.28;100.00;99696.53;4992818;28;19968;-90
2023/09/27 18:25:14;;;;;;;;;;;;;;;7.22;100.00;99708.09;4992484;28;19945;-90
2023/09/27 18:27:39;;;;;;;;;;;;;;;7.24;100.00;99702.78;4975437;28;20020;-88
2023/09/27 18:30:06;;;;;;;;;;;;;;;7.23;100.00;99706.34;4991290;28;19918;-89